sensor_id;sensor_type;location;lat;lon;timestamp;pressure;altitude;pressure_sealevel;temperature;humidity
36600;BME280;35385;55.668;37.508;2023-08-12T00:00:23;99538.88;;;22.41;100.00
36600;BME280;35385;55.668;37.508;2023-08-12T00:01:24;99561.50;;;22.48;100.00
36600;BME280;35385;55.668;37.508;2023-08-12T00:02:25;99557.75;;;22.49;100.00
36600;BME280;35385;55.668;37.508;2023-08-12T00:03:25;99555.22;;;22.47;100.00
36600;BME280;35385;55.668;37.508;2023-08-12T00:04:26;99530.91;;;22.39;100.00
36600;BME280;35385;55.668;37.508;2023-08-12T00:05:27;99558.59;;;22.56;100.00
36600;BME280;35385;55.668;37.508;2023-08-12T00:06:27;99556.91;;;22.55;100.00
36600;BME280;35385;55.668;37.508;2023-08-12T00:07:29;99569.47;;;22.56;100.00
36600;BME280;35385;55.668;37.508;2023-08-12T00:08:29;99568.63;;;22.55;100.00
36600;BME280;35385;55.668;37.508;2023-08-12T00:09:30;99574.09;;;22.55;100.00
36600;BME280;35385;55.668;37.508;2023-08-12T00:10:31;99590.41;;;22.55;100.00
36600;BME280;35385;55.668;37.508;2023-08-12T00:11:31;99595.84;;;22.55;100.00
36600;BME280;35385;55.668;37.508;2023-08-12T00:12:32;99575.72;;;22.43;100.00
36600;BME280;35385;55.668;37.508;2023-08-12T00:13:33;99547.69;;;22.43;100.00
36600;BME280;35385;55.668;37.508;2023-08-12T00:14:33;99573.66;;;22.52;100.00
36600;BME280;35385;55.668;37.508;2023-08-12T00:15:34;99576.16;;;22.47;100.00
36600;BME280;35385;55.668;37.508;2023-08-12T00:16:34;99573.44;;;22.47;100.00
36600;BME280;35385;55.668;37.508;2023-08-12T00:17:35;99565.28;;;22.47;100.00
36600;BME280;35385;55.668;37.508;2023-08-12T00:18:37;99569.69;;;22.48;100.00
36600;BME280;35385;55.668;37.508;2023-08-12T00:19:38;99560.25;;;22.44;100.00
36600;BME280;35385;55.668;37.508;2023-08-12T00:20:38;99567.81;;;22.48;100.00
36600;BME280;35385;55.668;37.508;2023-08-12T00:21:39;99561.28;;;22.43;100.00
36600;BME280;35385;55.668;37.508;2023-08-12T00:22:40;99554.81;;;22.44;100.00
36600;BME280;35385;55.668;37.508;2023-08-12T00:23:41;99557.72;;;22.42;100.00
36600;BME280;35385;55.668;37.508;2023-08-12T00:24:41;99538.25;;;22.32;100.00
36600;BME280;35385;55.668;37.508;2023-08-12T00:25:42;99553.13;;;22.43;100.00
36600;BME280;35385;55.668;37.508;2023-08-12T00:26:43;99549.75;;;22.41;100.00
36600;BME280;35385;55.668;37.508;2023-08-12T00:27:43;99533.41;;;22.28;100.00
36600;BME280;35385;55.668;37.508;2023-08-12T00:28:44;99530.69;;;22.28;100.00
36600;BME280;35385;55.668;37.508;2023-08-12T00:29:44;99555.19;;;22.41;100.00
36600;BME280;35385;55.668;37.508;2023-08-12T00:30:48;99565.69;;;22.44;100.00
36600;BME280;35385;55.668;37.508;2023-08-12T00:31:49;99558.34;;;22.44;100.00
36600;BME280;35385;55.668;37.508;2023-08-12T00:32:50;99560.88;;;22.46;100.00
36600;BME280;35385;55.668;37.508;2023-08-12T00:33:50;99508.88;;;22.14;100.00
36600;BME280;35385;55.668;37.508;2023-08-12T00:34:51;99559.59;;;22.42;100.00
36600;BME280;35385;55.668;37.508;2023-08-12T00:35:51;99557.72;;;22.42;100.00
36600;BME280;35385;55.668;37.508;2023-08-12T00:36:52;99564.00;;;22.43;100.00
36600;BME280;35385;55.668;37.508;2023-08-12T00:37:52;99554.38;;;22.40;100.00
36600;BME280;35385;55.668;37.508;2023-08-12T00:38:53;99559.00;;;22.46;100.00
36600;BME280;35385;55.668;37.508;2023-08-12T00:39:53;99560.69;;;22.47;100.00
36600;BME280;35385;55.668;37.508;2023-08-12T00:40:54;99565.28;;;22.47;100.00
36600;BME280;35385;55.668;37.508;2023-08-12T00:41:55;99551.03;;;22.45;100.00
36600;BME280;35385;55.668;37.508;2023-08-12T00:42:55;99553.16;;;22.49;100.00
36600;BME280;35385;55.668;37.508;2023-08-12T00:43:56;99547.66;;;22.36;100.00
36600;BME280;35385;55.668;37.508;2023-08-12T00:44:57;99566.13;;;22.47;100.00
36600;BME280;35385;55.668;37.508;2023-08-12T00:45:57;99557.31;;;22.45;100.00
36600;BME280;35385;55.668;37.508;2023-08-12T00:46:58;99567.38;;;22.45;100.00
36600;BME280;35385;55.668;37.508;2023-08-12T00:47:59;99566.72;;;22.43;100.00
36600;BME280;35385;55.668;37.508;2023-08-12T00:49:00;99557.28;;;22.39;100.00
36600;BME280;35385;55.668;37.508;2023-08-12T00:50:01;99567.38;;;22.45;100.00
36600;BME280;35385;55.668;37.508;2023-08-12T00:51:02;99556.44;;;22.32;100.00
36600;BME280;35385;55.668;37.508;2023-08-12T00:52:03;99569.84;;;22.40;100.00
36600;BME280;35385;55.668;37.508;2023-08-12T00:53:04;99569.03;;;22.46;100.00
36600;BME280;35385;55.668;37.508;2023-08-12T00:54:14;99572.59;;;22.46;100.00
36600;BME280;35385;55.668;37.508;2023-08-12T00:55:17;99569.25;;;22.44;100.00
36600;BME280;35385;55.668;37.508;2023-08-12T00:56:18;99551.22;;;22.37;100.00
36600;BME280;35385;55.668;37.508;2023-08-12T00:57:18;99573.25;;;22.48;100.00
36600;BME280;35385;55.668;37.508;2023-08-12T00:58:19;99568.00;;;22.47;100.00
36600;BME280;35385;55.668;37.508;2023-08-12T00:59:21;99564.88;;;22.50;100.00
36600;BME280;35385;55.668;37.508;2023-08-12T01:00:22;99556.47;;;22.45;100.00
36600;BME280;35385;55.668;37.508;2023-08-12T01:01:24;99555.19;;;22.41;100.00
36600;BME280;35385;55.668;37.508;2023-08-12T01:02:25;99558.13;;;22.39;100.00
36600;BME280;35385;55.668;37.508;2023-08-12T01:03:26;99546.00;;;22.42;100.00
36600;BME280;35385;55.668;37.508;2023-08-12T01:04:27;99542.00;;;22.31;100.00
36600;BME280;35385;55.668;37.508;2023-08-12T01:05:29;99540.72;;;22.27;100.00
36600;BME280;35385;55.668;37.508;2023-08-12T01:06:30;99548.09;;;22.33;100.00
36600;BME280;35385;55.668;37.508;2023-08-12T01:07:31;99550.59;;;22.35;100.00
36600;BME280;35385;55.668;37.508;2023-08-12T01:08:34;99556.88;;;22.35;100.00
36600;BME280;35385;55.668;37.508;2023-08-12T01:09:35;99562.09;;;22.37;100.00
36600;BME280;35385;55.668;37.508;2023-08-12T01:10:39;99565.44;;;22.39;100.00
36600;BME280;35385;55.668;37.508;2023-08-12T01:11:54;99555.59;;;22.38;100.00
36600;BME280;35385;55.668;37.508;2023-08-12T01:14:22;99569.84;;;22.40;100.00
36600;BME280;35385;55.668;37.508;2023-08-12T01:15:24;99563.31;;;22.28;100.00
36600;BME280;35385;55.668;37.508;2023-08-12T01:16:31;99568.59;;;22.36;100.00
36600;BME280;35385;55.668;37.508;2023-08-12T01:17:34;99551.41;;;22.29;100.00
36600;BME280;35385;55.668;37.508;2023-08-12T01:18:37;99581.13;;;22.37;100.00
36600;BME280;35385;55.668;37.508;2023-08-12T01:19:39;99574.06;;;22.36;100.00
36600;BME280;35385;55.668;37.508;2023-08-12T01:20:40;99571.53;;;22.34;100.00
36600;BME280;35385;55.668;37.508;2023-08-12T01:21:43;99581.78;;;22.39;100.00
36600;BME280;35385;55.668;37.508;2023-08-12T01:22:44;99572.97;;;22.37;100.00
36600;BME280;35385;55.668;37.508;2023-08-12T01:23:46;99557.72;;;22.36;100.00
36600;BME280;35385;55.668;37.508;2023-08-12T01:24:47;99545.56;;;22.32;100.00
36600;BME280;35385;55.668;37.508;2023-08-12T01:25:48;99560.22;;;22.31;100.00
36600;BME280;35385;55.668;37.508;2023-08-12T01:26:48;99560.22;;;22.31;100.00
36600;BME280;35385;55.668;37.508;2023-08-12T01:27:49;99566.09;;;22.34;100.00
36600;BME280;35385;55.668;37.508;2023-08-12T01:28:50;99567.31;;;22.32;100.00
36600;BME280;35385;55.668;37.508;2023-08-12T01:29:51;99572.78;;;22.32;100.00
36600;BME280;35385;55.668;37.508;2023-08-12T01:31:08;99573.41;;;22.34;100.00
36600;BME280;35385;55.668;37.508;2023-08-12T01:33:36;99571.91;;;22.25;100.00
36600;BME280;35385;55.668;37.508;2023-08-12T01:34:46;99570.41;;;22.15;100.00
36600;BME280;35385;55.668;37.508;2023-08-12T01:35:54;99566.44;;;22.18;100.00
36600;BME280;35385;55.668;37.508;2023-08-12T01:36:57;99543.41;;;22.07;100.00
36600;BME280;35385;55.668;37.508;2023-08-12T01:37:59;99571.47;;;22.21;100.00
36600;BME280;35385;55.668;37.508;2023-08-12T01:39:02;99576.09;;;22.20;100.00
36600;BME280;35385;55.668;37.508;2023-08-12T01:40:07;99562.69;;;22.26;100.00
36600;BME280;35385;55.668;37.508;2023-08-12T01:41:10;99560.59;;;22.28;100.00
36600;BME280;35385;55.668;37.508;2023-08-12T01:42:11;99560.66;;;22.34;100.00
36600;BME280;35385;55.668;37.508;2023-08-12T01:43:13;99561.88;;;22.38;100.00
36600;BME280;35385;55.668;37.508;2023-08-12T01:44:13;99537.81;;;22.29;100.00
36600;BME280;35385;55.668;37.508;2023-08-12T01:45:14;99531.31;;;22.30;100.00
36600;BME280;35385;55.668;37.508;2023-08-12T01:46:15;99541.75;;;22.19;100.00
36600;BME280;35385;55.668;37.508;2023-08-12T01:47:16;99543.00;;;22.23;100.00
36600;BME280;35385;55.668;37.508;2023-08-12T01:48:17;99512.41;;;22.08;100.00
36600;BME280;35385;55.668;37.508;2023-08-12T01:49:20;99547.22;;;22.26;100.00
36600;BME280;35385;55.668;37.508;2023-08-12T01:50:23;99540.91;;;22.19;100.00
36600;BME280;35385;55.668;37.508;2023-08-12T01:51:24;99541.31;;;22.16;100.00
36600;BME280;35385;55.668;37.508;2023-08-12T01:52:25;99502.28;;;21.96;100.00
36600;BME280;35385;55.668;37.508;2023-08-12T01:53:25;99518.72;;;22.15;100.00
36600;BME280;35385;55.668;37.508;2023-08-12T01:54:26;99511.41;;;22.22;100.00
36600;BME280;35385;55.668;37.508;2023-08-12T01:55:26;99523.75;;;22.18;100.00
36600;BME280;35385;55.668;37.508;2023-08-12T01:56:27;99527.53;;;22.17;100.00
36600;BME280;35385;55.668;37.508;2023-08-12T01:57:28;99527.09;;;22.14;100.00
36600;BME280;35385;55.668;37.508;2023-08-12T01:58:28;99505.72;;;22.11;100.00
36600;BME280;35385;55.668;37.508;2023-08-12T01:59:29;99508.25;;;22.12;100.00
36600;BME280;35385;55.668;37.508;2023-08-12T02:00:30;99511.38;;;22.09;100.00
36600;BME280;35385;55.668;37.508;2023-08-12T02:01:30;99482.03;;;21.92;100.00
36600;BME280;35385;55.668;37.508;2023-08-12T02:02:31;99517.66;;;22.10;100.00
36600;BME280;35385;55.668;37.508;2023-08-12T02:03:31;99514.94;;;22.10;100.00
36600;BME280;35385;55.668;37.508;2023-08-12T02:04:32;99518.28;;;22.12;100.00
36600;BME280;35385;55.668;37.508;2023-08-12T02:05:33;99520.81;;;22.13;100.00
36600;BME280;35385;55.668;37.508;2023-08-12T02:06:34;99518.50;;;22.10;100.00
36600;BME280;35385;55.668;37.508;2023-08-12T02:07:34;99518.72;;;22.15;100.00
36600;BME280;35385;55.668;37.508;2023-08-12T02:08:35;99518.09;;;22.13;100.00
36600;BME280;35385;55.668;37.508;2023-08-12T02:09:35;99519.97;;;22.13;100.00
36600;BME280;35385;55.668;37.508;2023-08-12T02:10:36;99522.50;;;22.14;100.00
36600;BME280;35385;55.668;37.508;2023-08-12T02:11:36;99512.41;;;22.02;100.00
36600;BME280;35385;55.668;37.508;2023-08-12T02:12:37;99535.84;;;22.09;100.00
36600;BME280;35385;55.668;37.508;2023-08-12T02:13:37;99529.81;;;22.07;100.00
36600;BME280;35385;55.668;37.508;2023-08-12T02:14:38;99530.41;;;22.09;100.00
36600;BME280;35385;55.668;37.508;2023-08-12T02:15:38;99514.28;;;22.08;100.00
36600;BME280;35385;55.668;37.508;2023-08-12T02:16:39;99502.56;;;22.01;100.00
36600;BME280;35385;55.668;37.508;2023-08-12T02:17:59;99507.81;;;22.02;100.00
36600;BME280;35385;55.668;37.508;2023-08-12T02:19:00;99525.81;;;22.10;100.00
36600;BME280;35385;55.668;37.508;2023-08-12T02:20:00;99523.72;;;22.05;100.00
36600;BME280;35385;55.668;37.508;2023-08-12T02:21:01;99520.38;;;22.03;100.00
36600;BME280;35385;55.668;37.508;2023-08-12T02:22:02;99488.22;;;21.79;100.00
36600;BME280;35385;55.668;37.508;2023-08-12T02:23:03;99514.00;;;21.96;100.00
36600;BME280;35385;55.668;37.508;2023-08-12T02:24:04;99508.38;;;21.91;100.00
36600;BME280;35385;55.668;37.508;2023-08-12T02:25:05;99506.44;;;21.85;100.00
36600;BME280;35385;55.668;37.508;2023-08-12T02:26:06;99504.44;;;22.00;100.00
36600;BME280;35385;55.668;37.508;2023-08-12T02:27:06;99517.38;;;21.98;100.00
36600;BME280;35385;55.668;37.508;2023-08-12T02:28:07;99488.84;;;21.81;100.00
36600;BME280;35385;55.668;37.508;2023-08-12T02:29:07;99515.69;;;21.97;100.00
36600;BME280;35385;55.668;37.508;2023-08-12T02:30:08;99514.66;;;21.92;100.00
36600;BME280;35385;55.668;37.508;2023-08-12T02:31:09;99516.94;;;21.95;100.00
36600;BME280;35385;55.668;37.508;2023-08-12T02:32:09;99489.91;;;21.80;100.00
36600;BME280;35385;55.668;37.508;2023-08-12T02:33:10;99499.34;;;21.84;100.00
36600;BME280;35385;55.668;37.508;2023-08-12T02:34:11;99518.63;;;21.96;100.00
36600;BME280;35385;55.668;37.508;2023-08-12T02:35:11;99515.06;;;21.95;100.00
36600;BME280;35385;55.668;37.508;2023-08-12T02:36:12;99523.41;;;21.94;100.00
36600;BME280;35385;55.668;37.508;2023-08-12T02:37:12;99512.34;;;21.95;100.00
36600;BME280;35385;55.668;37.508;2023-08-12T02:38:13;99515.69;;;21.97;100.00
36600;BME280;35385;55.668;37.508;2023-08-12T02:39:13;99519.97;;;22.06;100.00
36600;BME280;35385;55.668;37.508;2023-08-12T02:40:14;99521.84;;;22.06;100.00
36600;BME280;35385;55.668;37.508;2023-08-12T02:41:15;99518.28;;;22.05;100.00
36600;BME280;35385;55.668;37.508;2023-08-12T02:42:15;99517.84;;;22.08;100.00
36600;BME280;35385;55.668;37.508;2023-08-12T02:43:16;99517.84;;;22.08;100.00
36600;BME280;35385;55.668;37.508;2023-08-12T02:44:17;99521.84;;;22.06;100.00
36600;BME280;35385;55.668;37.508;2023-08-12T02:45:18;99518.09;;;22.07;100.00
36600;BME280;35385;55.668;37.508;2023-08-12T02:46:18;99522.50;;;22.14;100.00
36600;BME280;35385;55.668;37.508;2023-08-12T02:47:19;99523.31;;;22.15;100.00
36600;BME280;35385;55.668;37.508;2023-08-12T02:48:20;99527.09;;;22.07;100.00
36600;BME280;35385;55.668;37.508;2023-08-12T02:49:21;99542.31;;;22.02;100.00
36600;BME280;35385;55.668;37.508;2023-08-12T02:50:21;99497.84;;;21.81;100.00
36600;BME280;35385;55.668;37.508;2023-08-12T02:51:22;99518.28;;;22.05;100.00
36600;BME280;35385;55.668;37.508;2023-08-12T02:52:22;99522.44;;;22.08;100.00
36600;BME280;35385;55.668;37.508;2023-08-12T02:53:23;99516.53;;;21.98;100.00
36600;BME280;35385;55.668;37.508;2023-08-12T02:54:24;99510.00;;;21.85;100.00
36600;BME280;35385;55.668;37.508;2023-08-12T02:55:24;99513.31;;;21.81;100.00
36600;BME280;35385;55.668;37.508;2023-08-12T02:56:25;99503.91;;;21.77;100.00
36600;BME280;35385;55.668;37.508;2023-08-12T02:57:25;99508.53;;;21.83;100.00
36600;BME280;35385;55.668;37.508;2023-08-12T02:58:26;99529.97;;;21.99;100.00
36600;BME280;35385;55.668;37.508;2023-08-12T02:59:26;99535.84;;;22.09;100.00
36600;BME280;35385;55.668;37.508;2023-08-12T03:00:27;99528.31;;;22.11;100.00
36600;BME280;35385;55.668;37.508;2023-08-12T03:01:28;99532.53;;;22.07;100.00
36600;BME280;35385;55.668;37.508;2023-08-12T03:02:29;99532.09;;;22.10;100.00
36600;BME280;35385;55.668;37.508;2023-08-12T03:03:29;99505.22;;;21.94;100.00
36600;BME280;35385;55.668;37.508;2023-08-12T03:04:30;99530.84;;;22.06;100.00
36600;BME280;35385;55.668;37.508;2023-08-12T03:05:30;99537.13;;;22.07;100.00
36600;BME280;35385;55.668;37.508;2023-08-12T03:06:31;99517.00;;;22.08;100.00
36600;BME280;35385;55.668;37.508;2023-08-12T03:07:31;99528.38;;;22.18;100.00
36600;BME280;35385;55.668;37.508;2023-08-12T03:08:32;99525.44;;;22.19;100.00
36600;BME280;35385;55.668;37.508;2023-08-12T03:09:32;99512.03;;;22.25;100.00
36600;BME280;35385;55.668;37.508;2023-08-12T03:10:34;99526.72;;;22.30;100.00
36600;BME280;35385;55.668;37.508;2023-08-12T03:11:34;99511.00;;;22.26;100.00
36600;BME280;35385;55.668;37.508;2023-08-12T03:12:35;99508.47;;;22.17;100.00
36600;BME280;35385;55.668;37.508;2023-08-12T03:13:35;99513.53;;;22.20;100.00
36600;BME280;35385;55.668;37.508;2023-08-12T03:14:36;99482.28;;;22.03;100.00
36600;BME280;35385;55.668;37.508;2023-08-12T03:15:39;99498.44;;;22.25;100.00
36600;BME280;35385;55.668;37.508;2023-08-12T03:16:40;99493.22;;;22.30;100.00
36600;BME280;35385;55.668;37.508;2023-08-12T03:17:41;99491.16;;;22.32;100.00
36600;BME280;35385;55.668;37.508;2023-08-12T03:18:41;99488.41;;;22.18;100.00
36600;BME280;35385;55.668;37.508;2023-08-12T03:19:42;99464.28;;;22.02;100.00
36600;BME280;35385;55.668;37.508;2023-08-12T03:20:42;99461.72;;;21.94;100.00
36600;BME280;35385;55.668;37.508;2023-08-12T03:21:43;99486.50;;;22.12;100.00
36600;BME280;35385;55.668;37.508;2023-08-12T03:22:43;99483.56;;;22.14;100.00
36600;BME280;35385;55.668;37.508;2023-08-12T03:23:44;99487.53;;;22.11;100.00
36600;BME280;35385;55.668;37.508;2023-08-12T03:24:45;99469.25;;;21.92;100.00
36600;BME280;35385;55.668;37.508;2023-08-12T03:25:48;99497.56;;;22.04;100.00
36600;BME280;35385;55.668;37.508;2023-08-12T03:26:48;99492.25;;;21.96;100.00
36600;BME280;35385;55.668;37.508;2023-08-12T03:27:49;99498.16;;;22.00;100.00
36600;BME280;35385;55.668;37.508;2023-08-12T03:28:49;99484.56;;;22.00;100.00
36600;BME280;35385;55.668;37.508;2023-08-12T03:29:50;99456.28;;;21.87;100.00
36600;BME280;35385;55.668;37.508;2023-08-12T03:30:51;99464.44;;;21.94;100.00
36600;BME280;35385;55.668;37.508;2023-08-12T03:31:52;99477.28;;;22.07;100.00
36600;BME280;35385;55.668;37.508;2023-08-12T03:32:53;99472.06;;;22.12;100.00
36600;BME280;35385;55.668;37.508;2023-08-12T03:33:53;99449.59;;;21.90;100.00
36600;BME280;35385;55.668;37.508;2023-08-12T03:34:54;99446.31;;;22.01;100.00
36600;BME280;35385;55.668;37.508;2023-08-12T03:35:54;99469.34;;;22.18;100.00
36600;BME280;35385;55.668;37.508;2023-08-12T03:36:55;99474.38;;;22.15;100.00
36600;BME280;35385;55.668;37.508;2023-08-12T03:37:55;99478.75;;;22.16;100.00
36600;BME280;35385;55.668;37.508;2023-08-12T03:38:56;99476.25;;;22.14;100.00
36600;BME280;35385;55.668;37.508;2023-08-12T03:39:56;99472.25;;;22.10;100.00
36600;BME280;35385;55.668;37.508;2023-08-12T03:40:57;99474.56;;;22.13;100.00
36600;BME280;35385;55.668;37.508;2023-08-12T03:41:58;99463.50;;;22.21;100.00
36600;BME280;35385;55.668;37.508;2023-08-12T03:42:58;99471.03;;;22.26;100.00
36600;BME280;35385;55.668;37.508;2023-08-12T03:43:59;99450.94;;;22.14;100.00
36600;BME280;35385;55.668;37.508;2023-08-12T03:45:00;99481.06;;;22.26;100.00
36600;BME280;35385;55.668;37.508;2023-08-12T03:46:01;99478.75;;;22.22;100.00
36600;BME280;35385;55.668;37.508;2023-08-12T03:47:01;99489.88;;;22.28;100.00
36600;BME280;35385;55.668;37.508;2023-08-12T03:48:02;99497.00;;;22.29;100.00
36600;BME280;35385;55.668;37.508;2023-08-12T03:49:03;99462.84;;;22.13;100.00
36600;BME280;35385;55.668;37.508;2023-08-12T03:50:03;99486.75;;;22.31;100.00
36600;BME280;35385;55.668;37.508;2023-08-12T03:51:04;99458.44;;;22.12;100.00
36600;BME280;35385;55.668;37.508;2023-08-12T03:52:05;99481.09;;;22.39;100.00
36600;BME280;35385;55.668;37.508;2023-08-12T03:53:07;99481.09;;;22.39;100.00
36600;BME280;35385;55.668;37.508;2023-08-12T03:54:09;99479.03;;;22.47;100.00
36600;BME280;35385;55.668;37.508;2023-08-12T03:55:09;99479.88;;;22.48;100.00
36600;BME280;35385;55.668;37.508;2023-08-12T03:56:10;99484.03;;;22.44;100.00
36600;BME280;35385;55.668;37.508;2023-08-12T03:57:15;99479.41;;;22.38;100.00
36600;BME280;35385;55.668;37.508;2023-08-12T03:58:15;99476.09;;;22.36;100.00
36600;BME280;35385;55.668;37.508;2023-08-12T03:59:17;99483.19;;;22.30;100.00
36600;BME280;35385;55.668;37.508;2023-08-12T04:00:17;99462.22;;;22.04;100.00
36600;BME280;35385;55.668;37.508;2023-08-12T04:01:18;99489.84;;;22.14;100.00
36600;BME280;35385;55.668;37.508;2023-08-12T04:02:18;99496.31;;;22.13;100.00
36600;BME280;35385;55.668;37.508;2023-08-12T04:03:19;99495.28;;;22.14;100.00
36600;BME280;35385;55.668;37.508;2023-08-12T04:04:19;99481.25;;;22.04;100.00
36600;BME280;35385;55.668;37.508;2023-08-12T04:05:20;99501.97;;;22.12;100.00
36600;BME280;35385;55.668;37.508;2023-08-12T04:06:21;99491.50;;;22.09;100.00
36600;BME280;35385;55.668;37.508;2023-08-12T04:07:21;99496.94;;;22.09;100.00
36600;BME280;35385;55.668;37.508;2023-08-12T04:08:23;99478.47;;;21.98;100.00
36600;BME280;35385;55.668;37.508;2023-08-12T04:09:24;99502.81;;;22.12;100.00
36600;BME280;35385;55.668;37.508;2023-08-12T04:10:25;99478.66;;;21.96;100.00
36600;BME280;35385;55.668;37.508;2023-08-12T04:11:25;99510.75;;;22.07;100.00
36600;BME280;35385;55.668;37.508;2023-08-12T04:12:26;99520.16;;;22.05;100.00
36600;BME280;35385;55.668;37.508;2023-08-12T04:13:26;99507.41;;;22.05;100.00
36600;BME280;35385;55.668;37.508;2023-08-12T04:14:27;99508.38;;;21.98;100.00
36600;BME280;35385;55.668;37.508;2023-08-12T04:15:27;99492.66;;;21.86;100.00
36600;BME280;35385;55.668;37.508;2023-08-12T04:16:28;99515.38;;;22.07;100.00
36600;BME280;35385;55.668;37.508;2023-08-12T04:17:28;99514.97;;;22.16;100.00
36600;BME280;35385;55.668;37.508;2023-08-12T04:18:29;99485.56;;;21.92;100.00
36600;BME280;35385;55.668;37.508;2023-08-12T04:19:29;99511.16;;;22.04;100.00
36600;BME280;35385;55.668;37.508;2023-08-12T04:20:30;99512.22;;;22.03;100.00
36600;BME280;35385;55.668;37.508;2023-08-12T04:21:31;99484.75;;;21.92;100.00
36600;BME280;35385;55.668;37.508;2023-08-12T04:22:31;99517.84;;;22.08;100.00
36600;BME280;35385;55.668;37.508;2023-08-12T04:23:32;99518.63;;;21.96;100.00
36600;BME280;35385;55.668;37.508;2023-08-12T04:24:32;99487.19;;;21.80;100.00
36600;BME280;35385;55.668;37.508;2023-08-12T04:25:33;99528.72;;;22.02;100.00
36600;BME280;35385;55.668;37.508;2023-08-12T04:26:33;99526.44;;;22.05;100.00
36600;BME280;35385;55.668;37.508;2023-08-12T04:27:34;99516.81;;;22.03;100.00
36600;BME280;35385;55.668;37.508;2023-08-12T04:28:35;99488.47;;;21.84;100.00
36600;BME280;35385;55.668;37.508;2023-08-12T04:29:35;99510.06;;;21.99;100.00
36600;BME280;35385;55.668;37.508;2023-08-12T04:30:41;99497.50;;;21.91;100.00
36600;BME280;35385;55.668;37.508;2023-08-12T04:31:41;99509.03;;;22.00;100.00
36600;BME280;35385;55.668;37.508;2023-08-12T04:32:42;99493.94;;;21.97;100.00
36600;BME280;35385;55.668;37.508;2023-08-12T04:33:42;99498.53;;;21.97;100.00
36600;BME280;35385;55.668;37.508;2023-08-12T04:34:45;99496.03;;;21.95;100.00
36600;BME280;35385;55.668;37.508;2023-08-12T04:35:46;99489.81;;;22.01;100.00
36600;BME280;35385;55.668;37.508;2023-08-12T04:36:46;99494.78;;;21.98;100.00
36600;BME280;35385;55.668;37.508;2023-08-12T04:37:47;99501.06;;;21.98;100.00
36600;BME280;35385;55.668;37.508;2023-08-12T04:38:47;99496.22;;;21.94;100.00
36600;BME280;35385;55.668;37.508;2023-08-12T04:39:48;99489.75;;;21.95;100.00
36600;BME280;35385;55.668;37.508;2023-08-12T04:40:48;99493.59;;;22.07;100.00
36600;BME280;35385;55.668;37.508;2023-08-12T04:41:49;99486.91;;;22.03;100.00
36600;BME280;35385;55.668;37.508;2023-08-12T04:42:49;99487.31;;;22.06;100.00
36600;BME280;35385;55.668;37.508;2023-08-12T04:43:50;99499.44;;;22.04;100.00
36600;BME280;35385;55.668;37.508;2023-08-12T04:44:51;99516.59;;;22.11;100.00
36600;BME280;35385;55.668;37.508;2023-08-12T04:45:52;99488.50;;;21.97;100.00
36600;BME280;35385;55.668;37.508;2023-08-12T04:46:52;99519.13;;;22.12;100.00
36600;BME280;35385;55.668;37.508;2023-08-12T04:47:53;99514.09;;;22.09;100.00
36600;BME280;35385;55.668;37.508;2023-08-12T04:48:54;99519.72;;;22.08;100.00
36600;BME280;35385;55.668;37.508;2023-08-12T04:49:54;99522.88;;;22.11;100.00
36600;BME280;35385;55.668;37.508;2023-08-12T04:50:55;99517.03;;;22.14;100.00
36600;BME280;35385;55.668;37.508;2023-08-12T04:52:00;99523.38;;;22.21;100.00
36600;BME280;35385;55.668;37.508;2023-08-12T04:53:00;99525.66;;;22.25;100.00
36600;BME280;35385;55.668;37.508;2023-08-12T04:54:01;99530.03;;;22.26;100.00
36600;BME280;35385;55.668;37.508;2023-08-12T04:55:02;99525.84;;;22.23;100.00
36600;BME280;35385;55.668;37.508;2023-08-12T04:56:03;99527.13;;;22.27;100.00
36600;BME280;35385;55.668;37.508;2023-08-12T04:57:04;99513.75;;;22.32;100.00
36600;BME280;35385;55.668;37.508;2023-08-12T04:58:05;99516.03;;;22.29;100.00
36600;BME280;35385;55.668;37.508;2023-08-12T04:59:06;99487.31;;;22.13;100.00
36600;BME280;35385;55.668;37.508;2023-08-12T05:00:08;99496.97;;;22.15;100.00
36600;BME280;35385;55.668;37.508;2023-08-12T05:01:09;99523.78;;;22.32;100.00
36600;BME280;35385;55.668;37.508;2023-08-12T05:02:10;99531.94;;;22.25;100.00
36600;BME280;35385;55.668;37.508;2023-08-12T05:03:10;99540.50;;;22.22;100.00
36600;BME280;35385;55.668;37.508;2023-08-12T05:04:11;99541.97;;;22.18;100.00
36600;BME280;35385;55.668;37.508;2023-08-12T05:05:12;99531.69;;;22.13;100.00
36600;BME280;35385;55.668;37.508;2023-08-12T05:06:13;99532.97;;;22.17;100.00
36600;BME280;35385;55.668;37.508;2023-08-12T05:07:13;99530.03;;;22.19;100.00
36600;BME280;35385;55.668;37.508;2023-08-12T05:08:14;99522.09;;;22.17;100.00
36600;BME280;35385;55.668;37.508;2023-08-12T05:09:15;99519.56;;;22.22;100.00
36600;BME280;35385;55.668;37.508;2023-08-12T05:10:16;99525.84;;;22.16;100.00
36600;BME280;35385;55.668;37.508;2023-08-12T05:11:17;99530.03;;;22.19;100.00
36600;BME280;35385;55.668;37.508;2023-08-12T05:12:17;99520.63;;;22.21;100.00
36600;BME280;35385;55.668;37.508;2023-08-12T05:13:18;99504.50;;;22.13;100.00
36600;BME280;35385;55.668;37.508;2023-08-12T05:14:18;99500.72;;;22.14;100.00
36600;BME280;35385;55.668;37.508;2023-08-12T05:15:19;99492.97;;;22.11;100.00
36600;BME280;35385;55.668;37.508;2023-08-12T05:16:20;99507.03;;;22.21;100.00
36600;BME280;35385;55.668;37.508;2023-08-12T05:17:21;99492.38;;;22.22;100.00
36600;BME280;35385;55.668;37.508;2023-08-12T05:18:22;99480.25;;;22.18;100.00